• Join FlightAware (Why Join?)
  • Login
  • US Flag 
Gobble Gobble! 
08:39AM EST


 

Airport Tracker/Info


-or-


 

Live Flight TrackerFlight Track Log ✈ AFR1529 ✈ 12-May-2013 ✈ LIPE / BLQ - LFPG / CDG

Flight Track Log - Related Links

Times and Time Zones

All times are in EDT time to prevent confusion due to time zone crossing. See the AFR1529 flight status page for this flight to view local times or setup timezone preferences in your user account.

Time Position Orientation Groundspeed Altitude Reporting Facility
EDT Latitude Longitude Course Direction KTS MPH feet Rate Location/Type
06:34AM 44.5948 11.1895 310° West  Level Estimated
06:35AM 44.6547 11.0887 310° West  Level Estimated
06:36AM 44.7144 10.9876 310° West  Level Estimated
06:37AM 44.7741 10.8864 310° West  Level Estimated
06:38AM 44.8337 10.7850 310° West  Level Estimated
06:39AM 44.8931 10.6833 310° West  Level Estimated
06:40AM 44.9525 10.5814 310° West  Level Estimated
06:41AM 45.0118 10.4794 309° West  Level Estimated
06:42AM 45.0710 10.3771 309° West  Level Estimated
06:43AM 45.1301 10.2746 309° West  Level Estimated
06:44AM 45.1892 10.1718 309° West  Level Estimated
06:45AM 45.2481 10.0689 309° West  Level Estimated
06:46AM 45.3069 9.9657 309° West  Level Estimated
06:47AM 45.3657 9.8624 309° West  Level Estimated
06:48AM 45.4243 9.7588 309° West  Level Estimated
06:49AM 45.4829 9.6550 309° West  Level Estimated
06:50AM 45.5413 9.5510 309° West  Level Estimated
06:51AM 45.5997 9.4468 309° West  Level Estimated
06:52AM 45.6580 9.3424 309° West  Level Estimated
06:53AM 45.7147 9.2403 309° West  Level Estimated
06:54AM 45.7714 9.1379 308° West  Level Estimated
06:55AM 45.8280 9.0354 308° West  Level Estimated
06:56AM 45.8845 8.9327 308° West  Level Estimated
06:57AM 45.9409 8.8298 308° West  Level Estimated
06:58AM 45.9972 8.7266 308° West  Level Estimated
06:59AM 46.0534 8.6233 308° West  Level Estimated
07:00AM 46.1095 8.5197 308° West  Level Estimated
07:01AM 46.1655 8.4160 308° West  Level Estimated
07:02AM 46.2214 8.3120 308° West  Level Estimated
07:03AM 46.2773 8.2078 308° West  Level Estimated
07:04AM 46.3330 8.1034 308° West  Level Estimated
07:05AM 46.3886 7.9987 308° West  Level Estimated
07:06AM 46.4442 7.8939 308° West  Level Estimated
07:07AM 46.4996 7.7888 308° West  Level Estimated
07:08AM 46.5550 7.6836 307° West  Level Estimated
07:09AM 46.6102 7.5781 307° West  Level Estimated
07:10AM 46.6654 7.4724 307° West  Level Estimated
07:11AM 46.7205 7.3665 307° West  Level Estimated
07:12AM 46.7754 7.2604 307° West  Level Estimated
07:13AM 46.8303 7.1540 307° West  Level Estimated
07:14AM 46.8851 7.0475 307° West  Level Estimated
07:15AM 46.9397 6.9407 307° West  Level Estimated
07:16AM 46.9943 6.8337 307° West  Level Estimated
07:17AM 47.0488 6.7265 307° West  Level Estimated
07:18AM 47.1031 6.6191 307° West  Level Estimated
07:19AM 47.1574 6.5114 307° West  Level Estimated
07:20AM 47.2116 6.4035 306° West  Level Estimated
07:21AM 47.2657 6.2955 306° West  Level Estimated
07:22AM 47.3196 6.1871 306° West  Level Estimated
07:23AM 47.3735 6.0786 306° West  Level Estimated
07:24AM 47.4259 5.9724 306° West  Level Estimated
07:25AM 47.4783 5.8660 306° West  Level Estimated
07:26AM 47.5306 5.7595 306° West  Level Estimated
07:27AM 47.5828 5.6527 306° West  Level Estimated
07:28AM 47.6349 5.5457 306° West  Level Estimated
07:29AM 47.6869 5.4384 306° West  Level Estimated
07:30AM 47.7387 5.3310 306° West  Level Estimated
07:31AM 47.7905 5.2233 306° West  Level Estimated
07:32AM 47.8422 5.1154 306° West  Level Estimated
07:33AM 47.8938 5.0074 305° West  Level Estimated
07:34AM 47.9453 4.8991 305° West  Level Estimated
07:35AM 47.9966 4.7906 305° West  Level Estimated
07:36AM 48.0479 4.6818 305° West  Level Estimated
07:37AM 48.0991 4.5729 305° West  Level Estimated
07:38AM 48.1502 4.4637 305° West  Level Estimated
07:39AM 48.2011 4.3543 305° West  Level Estimated
07:40AM 48.2520 4.2447 305° West  Level Estimated
07:41AM 48.3027 4.1349 305° West  Level Estimated
07:42AM 48.3534 4.0249 305° West  Level Estimated
07:43AM 48.4039 3.9146 305° West  Level Estimated
07:44AM 48.4544 3.8042 305° West  Level Estimated
07:45AM 48.5047 3.6935 304° West  Level Estimated
07:46AM 48.5550 3.5826 304° West  Level Estimated
07:47AM 48.6051 3.4714 304° West  Level Estimated
07:48AM 48.6551 3.3601 304° West  Level Estimated
07:49AM 48.7050 3.2485 304° West  Level Estimated
07:50AM 48.7548 3.1367 304° West  Level Estimated
07:51AM 48.8045 3.0247 304° West  Level Estimated
07:52AM 48.8541 2.9124 304° West  Level Estimated
07:53AM 48.9013 2.8051 304° West  Level Estimated
07:54AM 48.9484 2.6975 304° West  Level Estimated
07:55AM 48.9955 2.5898 304° West  Level Estimated
07:56AM 49.0128 2.5500 304° West  Level Estimated
07:57AM 49.0128 2.5500 180° South  Level Estimated
07:58AM 49.0128 2.5500 180° South  Level Estimated
07:59AM 49.0128 2.5500 180° South  Level Estimated
08:00AM 49.0128 2.5500 180° South  Level Estimated